Due to severe server failure at the provider, not all demo sites are operational. Will take some days to rebuilt everything.

Demonstration site - Click on the  for more information

Active alerts



My webcam more information My webcam


Thunder radar more information blitzortung!


Rain radar more information rain snow radar


Visit our other weather sites:

Template documentation
and downloads

And another site


You find our weather info also at:

UK Metoffice

Weather Underground

AWEKAS

WeatherlinkIP

Citizen Weather Observer Program (CWOP)

HAMweather, WeatherForYou, PWS Weather



Nearby METAR Reports

   
KAVP - Albrightsville, PA
Updated: Oct 17 2021 1:54 am
Clear  
Clear  
   Wind: WSW 8.1 mph
Wind: WSW 8.1 mph
Temperature: 51.8°F
Dew Point: 46.4°F
Humidity: 82%
Barometer: 29.83 inHg
Clouds: Clear
Visibility: 10 mi
Cloud details: Clear ft
KAVP 170554Z 25007KT 10SM CLR 11/08 A2983 RMK AO2 SLP096 T01060078 10139 20106 58000
KIWA - Apache Junction, AZ
Updated: Oct 17 2021 12:55 am
NOT Current
Clear  
Clear  
   Wind: ENE 5.8 mph
Wind: ENE 5.8 mph
Temperature: 71.6°F
Dew Point: 32°F
Humidity: 23%
Barometer: 29.99 inHg
Clouds: Clear
Visibility: 10 mi
Cloud details: Clear ft
KIWA 170455Z 06005KT 10SM CLR 22/00 A2999
KPKB - Blue Rock, OH
Updated: Oct 17 2021 1:53 am
Partly Cloudy  
Partly Cloudy  
   Wind: West 5.8 mph
Wind: West 5.8 mph
Temperature: 48.2°F
Wind Chill: 46.4°F
Dew Point: 39.2°F
Humidity: 71%
Barometer: 30.08 inHg
Clouds: Partly Cloudy
Visibility: 10 mi
Cloud details: Partly Cloudy 7500 ft
KPKB 170553Z AUTO 26005KT 10SM SCT075 09/04 A3008 RMK AO2 SLP184 T00940044 10122 20094 58001 $
KHVN - Branford, CT
Updated: Oct 17 2021 1:53 am
Overcast  
Overcast  
   Wind: varies 4.6 mph
Wind: varies 4.6 mph
Temperature: 60.8°F
Dew Point: 57.2°F
Humidity: 88%
Barometer: 29.72 inHg
Clouds: Overcast
Visibility: 10 mi
Cloud details: Partly Cloudy 4400 ft,
Overcast 6000 ft
KHVN 170553Z AUTO VRB04KT 10SM SCT044 OVC060 16/14 A2972 RMK AO2 RAE01 SLP064 P0000 60029 T01560139 10206 20150 53004 $
KPHX - Carefree, AZ
Updated: Oct 17 2021 1:51 am
Clear  
Clear  
   Wind: East 3.5 mph
Wind: East 3.5 mph
Temperature: 73.4°F
Dew Point: 35.6°F
Humidity: 25%
Barometer: 29.95 inHg
Clouds: Clear
Visibility: 10 mi
Cloud details: Clear ft
KPHX 170551Z 10003KT 10SM CLR 23/02 A2995 RMK AO2 SLP125 T02330022 10328 20233 50003
 

Script developed by  Saratoga-weather.org Adapted for the template by  Weerstation Leuven

Equipment we use:

Weather-station
Davis VP2

Weather-program
WSWIN

Weather-server
My Computer

Provider
Robohost

Davis VP2

WSWIN

My Computer

Robohost

This is an optional block. Switch it on/off in your settings-file: $SITE['bannerTop'] = false; or $SITE['bannerBottom'] = false;

You can display ads, any other important text or photo’s using text / html or PHP code.

You can place one or more at the top and or bottom and it can all be different for content / size .